sensor_id;sensor_type;location;lat;lon;timestamp;P1;durP1;ratioP1;P2;durP2;ratioP2
6394;SDS011;3230;42.588;23.358;2023-05-07T00:02:11;11.60;;;5.10;;
6394;SDS011;3230;42.588;23.358;2023-05-07T00:04:37;9.13;;;4.72;;
6394;SDS011;3230;42.588;23.358;2023-05-07T00:07:03;6.77;;;4.60;;
6394;SDS011;3230;42.588;23.358;2023-05-07T00:09:29;8.70;;;5.63;;
6394;SDS011;3230;42.588;23.358;2023-05-07T00:11:55;6.83;;;4.87;;
6394;SDS011;3230;42.588;23.358;2023-05-07T00:14:20;5.27;;;4.30;;
6394;SDS011;3230;42.588;23.358;2023-05-07T00:16:46;6.13;;;4.77;;
6394;SDS011;3230;42.588;23.358;2023-05-07T00:19:11;7.57;;;4.40;;
6394;SDS011;3230;42.588;23.358;2023-05-07T00:21:36;8.37;;;5.10;;
6394;SDS011;3230;42.588;23.358;2023-05-07T00:24:02;7.40;;;4.50;;
6394;SDS011;3230;42.588;23.358;2023-05-07T00:26:28;9.00;;;4.50;;
6394;SDS011;3230;42.588;23.358;2023-05-07T00:28:53;6.23;;;4.33;;
6394;SDS011;3230;42.588;23.358;2023-05-07T00:31:19;6.60;;;4.03;;
6394;SDS011;3230;42.588;23.358;2023-05-07T00:33:44;5.20;;;4.37;;
6394;SDS011;3230;42.588;23.358;2023-05-07T00:36:10;8.83;;;4.87;;
6394;SDS011;3230;42.588;23.358;2023-05-07T00:38:35;8.50;;;5.47;;
6394;SDS011;3230;42.588;23.358;2023-05-07T00:41:00;8.10;;;6.00;;
6394;SDS011;3230;42.588;23.358;2023-05-07T00:43:27;7.67;;;5.20;;
6394;SDS011;3230;42.588;23.358;2023-05-07T00:45:53;7.70;;;5.50;;
6394;SDS011;3230;42.588;23.358;2023-05-07T00:48:18;8.27;;;5.32;;
6394;SDS011;3230;42.588;23.358;2023-05-07T00:50:44;7.00;;;5.07;;
6394;SDS011;3230;42.588;23.358;2023-05-07T00:53:10;4.60;;;3.90;;
6394;SDS011;3230;42.588;23.358;2023-05-07T00:55:36;13.40;;;4.57;;
6394;SDS011;3230;42.588;23.358;2023-05-07T00:58:02;6.30;;;4.60;;
6394;SDS011;3230;42.588;23.358;2023-05-07T01:00:28;5.93;;;4.53;;
6394;SDS011;3230;42.588;23.358;2023-05-07T01:02:54;5.03;;;4.30;;
6394;SDS011;3230;42.588;23.358;2023-05-07T01:05:19;7.03;;;4.30;;
6394;SDS011;3230;42.588;23.358;2023-05-07T01:07:47;5.80;;;4.03;;
6394;SDS011;3230;42.588;23.358;2023-05-07T01:10:15;7.67;;;4.70;;
6394;SDS011;3230;42.588;23.358;2023-05-07T01:12:41;7.70;;;4.97;;
6394;SDS011;3230;42.588;23.358;2023-05-07T01:15:08;5.57;;;4.40;;
6394;SDS011;3230;42.588;23.358;2023-05-07T01:17:35;7.10;;;4.53;;
6394;SDS011;3230;42.588;23.358;2023-05-07T01:20:01;8.17;;;4.87;;
6394;SDS011;3230;42.588;23.358;2023-05-07T01:22:33;7.17;;;5.17;;
6394;SDS011;3230;42.588;23.358;2023-05-07T01:24:59;9.85;;;6.57;;
6394;SDS011;3230;42.588;23.358;2023-05-07T01:27:26;9.33;;;5.97;;
6394;SDS011;3230;42.588;23.358;2023-05-07T01:29:52;10.70;;;6.50;;
6394;SDS011;3230;42.588;23.358;2023-05-07T01:32:19;8.27;;;5.80;;
6394;SDS011;3230;42.588;23.358;2023-05-07T01:34:48;11.30;;;6.37;;
6394;SDS011;3230;42.588;23.358;2023-05-07T01:37:16;12.40;;;7.43;;
6394;SDS011;3230;42.588;23.358;2023-05-07T01:39:42;9.83;;;6.77;;
6394;SDS011;3230;42.588;23.358;2023-05-07T01:42:09;8.50;;;6.20;;
6394;SDS011;3230;42.588;23.358;2023-05-07T01:44:35;15.60;;;6.20;;
6394;SDS011;3230;42.588;23.358;2023-05-07T01:47:01;8.30;;;5.70;;
6394;SDS011;3230;42.588;23.358;2023-05-07T01:49:27;9.47;;;5.93;;
6394;SDS011;3230;42.588;23.358;2023-05-07T01:51:52;8.13;;;5.50;;
6394;SDS011;3230;42.588;23.358;2023-05-07T01:54:18;10.70;;;5.93;;
6394;SDS011;3230;42.588;23.358;2023-05-07T01:56:43;10.67;;;6.10;;
6394;SDS011;3230;42.588;23.358;2023-05-07T01:59:09;10.47;;;5.70;;
6394;SDS011;3230;42.588;23.358;2023-05-07T02:01:34;9.30;;;5.60;;
6394;SDS011;3230;42.588;23.358;2023-05-07T02:04:00;7.27;;;5.30;;
6394;SDS011;3230;42.588;23.358;2023-05-07T02:06:25;8.23;;;5.47;;
6394;SDS011;3230;42.588;23.358;2023-05-07T02:08:51;9.70;;;5.93;;
6394;SDS011;3230;42.588;23.358;2023-05-07T02:11:16;6.60;;;5.00;;
6394;SDS011;3230;42.588;23.358;2023-05-07T02:13:42;6.80;;;5.50;;
6394;SDS011;3230;42.588;23.358;2023-05-07T02:16:07;7.23;;;5.23;;
6394;SDS011;3230;42.588;23.358;2023-05-07T02:18:33;7.97;;;5.53;;
6394;SDS011;3230;42.588;23.358;2023-05-07T02:20:58;7.43;;;5.10;;
6394;SDS011;3230;42.588;23.358;2023-05-07T02:23:23;9.93;;;5.37;;
6394;SDS011;3230;42.588;23.358;2023-05-07T02:25:49;10.90;;;5.67;;
6394;SDS011;3230;42.588;23.358;2023-05-07T02:28:15;7.23;;;5.30;;
6394;SDS011;3230;42.588;23.358;2023-05-07T02:30:40;8.90;;;5.70;;
6394;SDS011;3230;42.588;23.358;2023-05-07T02:33:05;9.80;;;6.50;;
6394;SDS011;3230;42.588;23.358;2023-05-07T02:35:33;11.80;;;7.23;;
6394;SDS011;3230;42.588;23.358;2023-05-07T02:37:58;15.10;;;8.73;;
6394;SDS011;3230;42.588;23.358;2023-05-07T02:40:23;14.70;;;8.00;;
6394;SDS011;3230;42.588;23.358;2023-05-07T02:42:49;7.37;;;5.67;;
6394;SDS011;3230;42.588;23.358;2023-05-07T02:45:14;14.20;;;7.60;;
6394;SDS011;3230;42.588;23.358;2023-05-07T02:47:40;9.83;;;6.40;;
6394;SDS011;3230;42.588;23.358;2023-05-07T02:50:05;10.57;;;7.00;;
6394;SDS011;3230;42.588;23.358;2023-05-07T02:52:31;8.70;;;5.97;;
6394;SDS011;3230;42.588;23.358;2023-05-07T02:54:57;7.63;;;5.33;;
6394;SDS011;3230;42.588;23.358;2023-05-07T02:57:22;8.37;;;6.17;;
6394;SDS011;3230;42.588;23.358;2023-05-07T02:59:47;9.93;;;5.97;;
6394;SDS011;3230;42.588;23.358;2023-05-07T03:02:13;8.57;;;6.03;;
6394;SDS011;3230;42.588;23.358;2023-05-07T03:04:39;9.63;;;6.03;;
6394;SDS011;3230;42.588;23.358;2023-05-07T03:07:04;8.50;;;6.00;;
6394;SDS011;3230;42.588;23.358;2023-05-07T03:09:30;9.83;;;6.43;;
6394;SDS011;3230;42.588;23.358;2023-05-07T03:11:56;9.50;;;6.33;;
6394;SDS011;3230;42.588;23.358;2023-05-07T03:14:21;9.20;;;6.57;;
6394;SDS011;3230;42.588;23.358;2023-05-07T03:16:47;7.87;;;6.03;;
6394;SDS011;3230;42.588;23.358;2023-05-07T03:19:12;7.77;;;6.27;;
6394;SDS011;3230;42.588;23.358;2023-05-07T03:21:37;8.77;;;5.57;;
6394;SDS011;3230;42.588;23.358;2023-05-07T03:24:03;10.00;;;6.40;;
6394;SDS011;3230;42.588;23.358;2023-05-07T03:26:28;9.70;;;6.57;;
6394;SDS011;3230;42.588;23.358;2023-05-07T03:28:54;8.47;;;6.10;;
6394;SDS011;3230;42.588;23.358;2023-05-07T03:31:20;7.13;;;5.20;;
6394;SDS011;3230;42.588;23.358;2023-05-07T03:33:50;9.80;;;6.73;;
6394;SDS011;3230;42.588;23.358;2023-05-07T03:36:17;11.20;;;6.50;;
6394;SDS011;3230;42.588;23.358;2023-05-07T03:38:43;9.83;;;5.60;;
6394;SDS011;3230;42.588;23.358;2023-05-07T03:41:08;8.13;;;5.67;;
6394;SDS011;3230;42.588;23.358;2023-05-07T03:43:34;6.43;;;5.40;;
6394;SDS011;3230;42.588;23.358;2023-05-07T03:45:59;8.03;;;5.90;;
6394;SDS011;3230;42.588;23.358;2023-05-07T03:48:25;15.20;;;6.60;;
6394;SDS011;3230;42.588;23.358;2023-05-07T03:50:50;14.43;;;6.30;;
6394;SDS011;3230;42.588;23.358;2023-05-07T03:53:16;9.67;;;6.27;;
6394;SDS011;3230;42.588;23.358;2023-05-07T03:55:41;8.60;;;6.20;;
6394;SDS011;3230;42.588;23.358;2023-05-07T03:58:07;8.23;;;6.20;;
6394;SDS011;3230;42.588;23.358;2023-05-07T04:00:32;9.43;;;6.10;;
6394;SDS011;3230;42.588;23.358;2023-05-07T04:03:02;7.90;;;5.70;;
6394;SDS011;3230;42.588;23.358;2023-05-07T04:05:28;6.80;;;5.50;;
6394;SDS011;3230;42.588;23.358;2023-05-07T04:07:54;8.60;;;6.60;;
6394;SDS011;3230;42.588;23.358;2023-05-07T04:10:19;9.73;;;6.50;;
6394;SDS011;3230;42.588;23.358;2023-05-07T04:12:44;10.07;;;6.50;;
6394;SDS011;3230;42.588;23.358;2023-05-07T04:15:10;9.27;;;6.40;;
6394;SDS011;3230;42.588;23.358;2023-05-07T04:17:35;8.70;;;5.97;;
6394;SDS011;3230;42.588;23.358;2023-05-07T04:20:01;11.53;;;6.50;;
6394;SDS011;3230;42.588;23.358;2023-05-07T04:22:27;8.13;;;6.10;;
6394;SDS011;3230;42.588;23.358;2023-05-07T04:24:52;8.60;;;6.20;;
6394;SDS011;3230;42.588;23.358;2023-05-07T04:27:18;7.97;;;5.90;;
6394;SDS011;3230;42.588;23.358;2023-05-07T04:29:43;10.73;;;7.03;;
6394;SDS011;3230;42.588;23.358;2023-05-07T04:32:12;9.07;;;6.40;;
6394;SDS011;3230;42.588;23.358;2023-05-07T04:34:37;14.50;;;7.20;;
6394;SDS011;3230;42.588;23.358;2023-05-07T04:37:06;10.20;;;7.10;;
6394;SDS011;3230;42.588;23.358;2023-05-07T04:39:32;8.93;;;6.30;;
6394;SDS011;3230;42.588;23.358;2023-05-07T04:41:57;9.67;;;6.90;;
6394;SDS011;3230;42.588;23.358;2023-05-07T04:44:23;8.63;;;6.67;;
6394;SDS011;3230;42.588;23.358;2023-05-07T04:46:48;8.53;;;6.13;;
6394;SDS011;3230;42.588;23.358;2023-05-07T04:49:13;13.80;;;6.60;;
6394;SDS011;3230;42.588;23.358;2023-05-07T04:51:39;10.10;;;6.83;;
6394;SDS011;3230;42.588;23.358;2023-05-07T04:54:07;10.97;;;6.90;;
6394;SDS011;3230;42.588;23.358;2023-05-07T04:56:33;8.90;;;6.80;;
6394;SDS011;3230;42.588;23.358;2023-05-07T04:58:58;9.80;;;7.20;;
6394;SDS011;3230;42.588;23.358;2023-05-07T05:01:23;9.30;;;7.10;;
6394;SDS011;3230;42.588;23.358;2023-05-07T05:03:49;9.50;;;7.10;;
6394;SDS011;3230;42.588;23.358;2023-05-07T05:06:15;21.13;;;7.77;;
6394;SDS011;3230;42.588;23.358;2023-05-07T05:08:40;9.20;;;7.10;;
6394;SDS011;3230;42.588;23.358;2023-05-07T05:11:05;11.87;;;8.00;;
6394;SDS011;3230;42.588;23.358;2023-05-07T05:13:31;9.17;;;7.67;;
6394;SDS011;3230;42.588;23.358;2023-05-07T05:15:56;10.03;;;7.80;;
6394;SDS011;3230;42.588;23.358;2023-05-07T05:18:22;10.53;;;7.50;;
6394;SDS011;3230;42.588;23.358;2023-05-07T05:20:47;9.43;;;7.40;;
6394;SDS011;3230;42.588;23.358;2023-05-07T05:23:13;9.33;;;7.33;;
6394;SDS011;3230;42.588;23.358;2023-05-07T05:25:38;9.50;;;7.70;;
6394;SDS011;3230;42.588;23.358;2023-05-07T05:28:05;9.20;;;7.63;;
6394;SDS011;3230;42.588;23.358;2023-05-07T05:30:30;7.33;;;5.83;;
6394;SDS011;3230;42.588;23.358;2023-05-07T05:32:56;10.83;;;6.60;;
6394;SDS011;3230;42.588;23.358;2023-05-07T05:35:21;8.80;;;6.87;;
6394;SDS011;3230;42.588;23.358;2023-05-07T05:37:46;9.13;;;6.40;;
6394;SDS011;3230;42.588;23.358;2023-05-07T05:40:13;9.27;;;6.20;;
6394;SDS011;3230;42.588;23.358;2023-05-07T05:42:38;6.80;;;6.00;;
6394;SDS011;3230;42.588;23.358;2023-05-07T05:45:04;6.67;;;5.40;;
6394;SDS011;3230;42.588;23.358;2023-05-07T05:47:30;6.80;;;5.73;;
6394;SDS011;3230;42.588;23.358;2023-05-07T05:49:55;8.83;;;5.20;;
6394;SDS011;3230;42.588;23.358;2023-05-07T05:52:21;6.43;;;5.20;;
6394;SDS011;3230;42.588;23.358;2023-05-07T05:54:48;9.23;;;5.50;;
6394;SDS011;3230;42.588;23.358;2023-05-07T05:57:14;6.13;;;5.07;;
6394;SDS011;3230;42.588;23.358;2023-05-07T05:59:39;7.50;;;6.23;;
6394;SDS011;3230;42.588;23.358;2023-05-07T06:02:05;8.90;;;6.80;;
6394;SDS011;3230;42.588;23.358;2023-05-07T06:04:31;9.80;;;6.37;;
6394;SDS011;3230;42.588;23.358;2023-05-07T06:06:57;9.33;;;5.97;;
6394;SDS011;3230;42.588;23.358;2023-05-07T06:09:22;11.30;;;6.90;;
6394;SDS011;3230;42.588;23.358;2023-05-07T06:11:47;8.60;;;6.80;;
6394;SDS011;3230;42.588;23.358;2023-05-07T06:14:13;7.80;;;6.40;;
6394;SDS011;3230;42.588;23.358;2023-05-07T06:16:38;8.10;;;5.83;;
6394;SDS011;3230;42.588;23.358;2023-05-07T06:19:04;8.23;;;5.63;;
6394;SDS011;3230;42.588;23.358;2023-05-07T06:21:29;8.37;;;6.57;;
6394;SDS011;3230;42.588;23.358;2023-05-07T06:23:55;7.60;;;5.97;;
6394;SDS011;3230;42.588;23.358;2023-05-07T06:26:21;7.30;;;5.83;;
6394;SDS011;3230;42.588;23.358;2023-05-07T06:28:46;9.27;;;6.57;;
6394;SDS011;3230;42.588;23.358;2023-05-07T06:33:38;5.97;;;4.63;;
6394;SDS011;3230;42.588;23.358;2023-05-07T06:36:03;5.13;;;4.50;;
6394;SDS011;3230;42.588;23.358;2023-05-07T06:38:29;5.30;;;4.80;;
6394;SDS011;3230;42.588;23.358;2023-05-07T06:40:55;5.00;;;4.50;;
6394;SDS011;3230;42.588;23.358;2023-05-07T06:43:22;7.10;;;4.97;;
6394;SDS011;3230;42.588;23.358;2023-05-07T06:45:47;6.77;;;5.43;;
6394;SDS011;3230;42.588;23.358;2023-05-07T06:48:13;7.40;;;6.37;;
6394;SDS011;3230;42.588;23.358;2023-05-07T06:50:38;6.90;;;5.50;;
6394;SDS011;3230;42.588;23.358;2023-05-07T06:53:04;6.13;;;5.50;;
6394;SDS011;3230;42.588;23.358;2023-05-07T06:55:29;6.70;;;6.00;;
6394;SDS011;3230;42.588;23.358;2023-05-07T06:57:55;7.67;;;6.73;;
6394;SDS011;3230;42.588;23.358;2023-05-07T07:00:23;7.80;;;6.27;;
6394;SDS011;3230;42.588;23.358;2023-05-07T07:02:48;7.60;;;6.07;;
6394;SDS011;3230;42.588;23.358;2023-05-07T07:05:13;7.00;;;6.07;;
6394;SDS011;3230;42.588;23.358;2023-05-07T07:07:39;10.17;;;6.23;;
6394;SDS011;3230;42.588;23.358;2023-05-07T07:10:04;7.00;;;5.50;;
6394;SDS011;3230;42.588;23.358;2023-05-07T07:12:30;6.60;;;5.80;;
6394;SDS011;3230;42.588;23.358;2023-05-07T07:14:56;6.10;;;5.50;;
6394;SDS011;3230;42.588;23.358;2023-05-07T07:17:21;7.50;;;5.40;;
6394;SDS011;3230;42.588;23.358;2023-05-07T07:19:47;8.33;;;5.50;;
6394;SDS011;3230;42.588;23.358;2023-05-07T07:22:12;6.00;;;5.33;;
6394;SDS011;3230;42.588;23.358;2023-05-07T07:24:37;5.97;;;5.17;;
6394;SDS011;3230;42.588;23.358;2023-05-07T07:27:03;24.87;;;6.00;;
6394;SDS011;3230;42.588;23.358;2023-05-07T07:29:28;9.83;;;4.90;;
6394;SDS011;3230;42.588;23.358;2023-05-07T07:31:54;8.50;;;5.37;;
6394;SDS011;3230;42.588;23.358;2023-05-07T07:34:19;5.47;;;4.97;;
6394;SDS011;3230;42.588;23.358;2023-05-07T07:36:44;5.90;;;5.23;;
6394;SDS011;3230;42.588;23.358;2023-05-07T07:39:10;5.73;;;5.17;;
6394;SDS011;3230;42.588;23.358;2023-05-07T07:41:35;6.33;;;5.23;;
6394;SDS011;3230;42.588;23.358;2023-05-07T07:44:00;11.80;;;4.93;;
6394;SDS011;3230;42.588;23.358;2023-05-07T07:46:28;6.20;;;5.10;;
6394;SDS011;3230;42.588;23.358;2023-05-07T07:48:54;5.20;;;4.70;;
6394;SDS011;3230;42.588;23.358;2023-05-07T07:51:19;5.80;;;5.20;;
6394;SDS011;3230;42.588;23.358;2023-05-07T07:53:45;5.70;;;4.80;;
6394;SDS011;3230;42.588;23.358;2023-05-07T07:56:10;7.00;;;5.23;;
6394;SDS011;3230;42.588;23.358;2023-05-07T07:58:37;5.83;;;5.00;;
6394;SDS011;3230;42.588;23.358;2023-05-07T08:01:02;5.40;;;4.90;;
6394;SDS011;3230;42.588;23.358;2023-05-07T08:03:28;8.23;;;4.90;;
6394;SDS011;3230;42.588;23.358;2023-05-07T08:05:56;6.73;;;5.60;;
6394;SDS011;3230;42.588;23.358;2023-05-07T08:08:22;5.80;;;5.20;;
6394;SDS011;3230;42.588;23.358;2023-05-07T08:10:47;9.47;;;4.87;;
6394;SDS011;3230;42.588;23.358;2023-05-07T08:13:14;4.80;;;4.20;;
6394;SDS011;3230;42.588;23.358;2023-05-07T08:15:40;8.10;;;5.10;;
6394;SDS011;3230;42.588;23.358;2023-05-07T08:18:05;6.57;;;4.90;;
6394;SDS011;3230;42.588;23.358;2023-05-07T08:20:31;9.70;;;5.20;;
6394;SDS011;3230;42.588;23.358;2023-05-07T08:22:56;5.53;;;4.50;;
6394;SDS011;3230;42.588;23.358;2023-05-07T08:25:22;5.00;;;4.50;;
6394;SDS011;3230;42.588;23.358;2023-05-07T08:27:47;5.10;;;4.60;;
6394;SDS011;3230;42.588;23.358;2023-05-07T08:30:12;6.07;;;4.60;;
6394;SDS011;3230;42.588;23.358;2023-05-07T08:32:38;6.70;;;4.83;;
6394;SDS011;3230;42.588;23.358;2023-05-07T08:35:04;7.83;;;5.17;;
6394;SDS011;3230;42.588;23.358;2023-05-07T08:37:30;11.03;;;6.20;;
6394;SDS011;3230;42.588;23.358;2023-05-07T08:39:55;6.73;;;5.40;;
6394;SDS011;3230;42.588;23.358;2023-05-07T08:42:21;10.90;;;5.17;;
6394;SDS011;3230;42.588;23.358;2023-05-07T08:44:49;5.03;;;4.20;;
6394;SDS011;3230;42.588;23.358;2023-05-07T08:47:18;7.17;;;4.30;;
6394;SDS011;3230;42.588;23.358;2023-05-07T08:49:44;7.60;;;3.43;;
6394;SDS011;3230;42.588;23.358;2023-05-07T08:52:11;4.50;;;4.10;;
6394;SDS011;3230;42.588;23.358;2023-05-07T08:54:37;5.00;;;3.90;;
6394;SDS011;3230;42.588;23.358;2023-05-07T08:57:03;5.70;;;3.80;;
6394;SDS011;3230;42.588;23.358;2023-05-07T08:59:28;7.87;;;4.33;;
6394;SDS011;3230;42.588;23.358;2023-05-07T09:01:55;4.10;;;3.27;;
6394;SDS011;3230;42.588;23.358;2023-05-07T09:04:20;4.23;;;3.83;;
6394;SDS011;3230;42.588;23.358;2023-05-07T09:06:46;8.90;;;4.23;;
6394;SDS011;3230;42.588;23.358;2023-05-07T09:09:14;6.17;;;4.27;;
6394;SDS011;3230;42.588;23.358;2023-05-07T09:11:42;5.13;;;3.90;;
6394;SDS011;3230;42.588;23.358;2023-05-07T09:14:07;6.17;;;4.80;;
6394;SDS011;3230;42.588;23.358;2023-05-07T09:16:33;8.10;;;4.77;;
6394;SDS011;3230;42.588;23.358;2023-05-07T09:18:59;7.00;;;5.20;;
6394;SDS011;3230;42.588;23.358;2023-05-07T09:21:25;6.10;;;4.77;;
6394;SDS011;3230;42.588;23.358;2023-05-07T09:23:51;8.07;;;5.30;;
6394;SDS011;3230;42.588;23.358;2023-05-07T09:26:17;8.03;;;5.07;;
6394;SDS011;3230;42.588;23.358;2023-05-07T09:28:43;8.23;;;5.40;;
6394;SDS011;3230;42.588;23.358;2023-05-07T09:31:10;6.70;;;4.47;;
6394;SDS011;3230;42.588;23.358;2023-05-07T09:33:36;4.70;;;4.20;;
6394;SDS011;3230;42.588;23.358;2023-05-07T09:36:05;7.10;;;4.77;;
6394;SDS011;3230;42.588;23.358;2023-05-07T09:38:33;6.10;;;4.90;;
6394;SDS011;3230;42.588;23.358;2023-05-07T09:41:03;6.37;;;4.50;;
6394;SDS011;3230;42.588;23.358;2023-05-07T09:43:36;11.43;;;4.50;;
6394;SDS011;3230;42.588;23.358;2023-05-07T09:46:04;7.83;;;4.60;;
6394;SDS011;3230;42.588;23.358;2023-05-07T09:48:34;5.57;;;4.40;;
6394;SDS011;3230;42.588;23.358;2023-05-07T09:51:02;8.23;;;4.40;;
6394;SDS011;3230;42.588;23.358;2023-05-07T09:53:31;7.03;;;4.50;;
6394;SDS011;3230;42.588;23.358;2023-05-07T09:55:58;6.50;;;4.10;;
6394;SDS011;3230;42.588;23.358;2023-05-07T09:58:25;7.28;;;4.38;;
6394;SDS011;3230;42.588;23.358;2023-05-07T10:00:51;6.50;;;4.00;;
6394;SDS011;3230;42.588;23.358;2023-05-07T10:03:19;5.60;;;4.80;;
6394;SDS011;3230;42.588;23.358;2023-05-07T10:05:46;5.33;;;4.27;;
6394;SDS011;3230;42.588;23.358;2023-05-07T10:08:12;6.10;;;4.13;;
6394;SDS011;3230;42.588;23.358;2023-05-07T10:10:39;6.40;;;4.60;;
6394;SDS011;3230;42.588;23.358;2023-05-07T10:13:05;7.27;;;4.90;;
6394;SDS011;3230;42.588;23.358;2023-05-07T10:15:35;6.90;;;4.20;;
6394;SDS011;3230;42.588;23.358;2023-05-07T10:18:01;11.87;;;5.57;;
6394;SDS011;3230;42.588;23.358;2023-05-07T10:20:28;8.40;;;4.70;;
6394;SDS011;3230;42.588;23.358;2023-05-07T10:22:54;5.90;;;4.40;;
6394;SDS011;3230;42.588;23.358;2023-05-07T10:25:26;12.10;;;4.90;;
6394;SDS011;3230;42.588;23.358;2023-05-07T10:27:55;5.93;;;4.40;;
6394;SDS011;3230;42.588;23.358;2023-05-07T10:33:03;5.57;;;4.63;;
6394;SDS011;3230;42.588;23.358;2023-05-07T10:35:32;7.90;;;5.20;;
6394;SDS011;3230;42.588;23.358;2023-05-07T10:38:04;6.23;;;4.40;;
6394;SDS011;3230;42.588;23.358;2023-05-07T10:40:30;13.33;;;5.60;;
6394;SDS011;3230;42.588;23.358;2023-05-07T10:42:57;8.67;;;5.70;;
6394;SDS011;3230;42.588;23.358;2023-05-07T10:45:25;8.83;;;5.70;;
6394;SDS011;3230;42.588;23.358;2023-05-07T10:48:05;10.40;;;5.80;;
6394;SDS011;3230;42.588;23.358;2023-05-07T10:50:30;9.63;;;6.50;;
6394;SDS011;3230;42.588;23.358;2023-05-07T10:58:37;6.90;;;5.43;;
6394;SDS011;3230;42.588;23.358;2023-05-07T11:01:03;6.80;;;5.23;;
6394;SDS011;3230;42.588;23.358;2023-05-07T11:03:28;7.20;;;5.60;;
6394;SDS011;3230;42.588;23.358;2023-05-07T11:06:13;9.43;;;6.40;;
6394;SDS011;3230;42.588;23.358;2023-05-07T11:11:18;7.83;;;6.20;;
6394;SDS011;3230;42.588;23.358;2023-05-07T11:13:45;8.80;;;5.80;;
6394;SDS011;3230;42.588;23.358;2023-05-07T11:16:19;7.50;;;5.60;;
6394;SDS011;3230;42.588;23.358;2023-05-07T11:21:31;14.17;;;6.03;;
6394;SDS011;3230;42.588;23.358;2023-05-07T11:24:01;23.13;;;6.17;;
6394;SDS011;3230;42.588;23.358;2023-05-07T11:26:28;9.30;;;5.73;;
6394;SDS011;3230;42.588;23.358;2023-05-07T11:28:56;6.90;;;5.87;;
6394;SDS011;3230;42.588;23.358;2023-05-07T11:31:22;9.87;;;5.30;;
6394;SDS011;3230;42.588;23.358;2023-05-07T11:33:51;8.03;;;6.10;;
6394;SDS011;3230;42.588;23.358;2023-05-07T11:36:17;7.17;;;5.50;;
6394;SDS011;3230;42.588;23.358;2023-05-07T11:38:44;7.30;;;5.77;;
6394;SDS011;3230;42.588;23.358;2023-05-07T11:41:10;8.40;;;6.70;;
6394;SDS011;3230;42.588;23.358;2023-05-07T11:43:35;8.03;;;6.57;;
6394;SDS011;3230;42.588;23.358;2023-05-07T11:46:05;7.67;;;5.70;;
6394;SDS011;3230;42.588;23.358;2023-05-07T11:48:32;8.23;;;5.80;;
6394;SDS011;3230;42.588;23.358;2023-05-07T11:53:24;8.13;;;5.97;;
6394;SDS011;3230;42.588;23.358;2023-05-07T11:55:56;10.57;;;5.90;;
6394;SDS011;3230;42.588;23.358;2023-05-07T11:58:23;8.20;;;6.00;;
6394;SDS011;3230;42.588;23.358;2023-05-07T12:00:50;8.20;;;6.33;;
6394;SDS011;3230;42.588;23.358;2023-05-07T12:03:19;7.80;;;6.00;;
6394;SDS011;3230;42.588;23.358;2023-05-07T12:05:45;7.60;;;5.87;;
6394;SDS011;3230;42.588;23.358;2023-05-07T12:08:18;8.60;;;5.87;;
6394;SDS011;3230;42.588;23.358;2023-05-07T12:10:45;7.13;;;5.53;;
6394;SDS011;3230;42.588;23.358;2023-05-07T12:13:25;6.20;;;4.93;;
6394;SDS011;3230;42.588;23.358;2023-05-07T12:15:57;9.77;;;5.83;;
6394;SDS011;3230;42.588;23.358;2023-05-07T12:18:23;6.13;;;4.90;;
6394;SDS011;3230;42.588;23.358;2023-05-07T12:20:50;7.47;;;5.73;;
6394;SDS011;3230;42.588;23.358;2023-05-07T12:23:15;9.17;;;5.60;;
6394;SDS011;3230;42.588;23.358;2023-05-07T12:25:42;6.60;;;5.73;;
6394;SDS011;3230;42.588;23.358;2023-05-07T12:28:15;7.23;;;5.43;;
6394;SDS011;3230;42.588;23.358;2023-05-07T12:30:42;10.30;;;5.80;;
6394;SDS011;3230;42.588;23.358;2023-05-07T12:33:08;8.63;;;5.80;;
6394;SDS011;3230;42.588;23.358;2023-05-07T12:35:38;7.37;;;5.47;;
6394;SDS011;3230;42.588;23.358;2023-05-07T12:38:09;6.17;;;5.57;;
6394;SDS011;3230;42.588;23.358;2023-05-07T12:40:56;9.07;;;5.60;;
6394;SDS011;3230;42.588;23.358;2023-05-07T12:43:26;11.53;;;5.10;;
6394;SDS011;3230;42.588;23.358;2023-05-07T12:45:54;7.40;;;6.10;;
6394;SDS011;3230;42.588;23.358;2023-05-07T12:48:22;7.10;;;5.83;;
6394;SDS011;3230;42.588;23.358;2023-05-07T12:50:51;9.97;;;5.40;;
6394;SDS011;3230;42.588;23.358;2023-05-07T12:53:19;8.13;;;5.60;;
6394;SDS011;3230;42.588;23.358;2023-05-07T12:55:47;5.80;;;5.20;;
6394;SDS011;3230;42.588;23.358;2023-05-07T12:58:17;9.00;;;5.30;;
6394;SDS011;3230;42.588;23.358;2023-05-07T13:00:48;13.40;;;5.37;;
6394;SDS011;3230;42.588;23.358;2023-05-07T13:03:28;6.60;;;5.43;;
6394;SDS011;3230;42.588;23.358;2023-05-07T13:05:55;7.33;;;5.10;;
6394;SDS011;3230;42.588;23.358;2023-05-07T13:08:23;10.63;;;5.37;;
6394;SDS011;3230;42.588;23.358;2023-05-07T13:10:52;7.37;;;5.10;;
6394;SDS011;3230;42.588;23.358;2023-05-07T13:13:20;8.03;;;5.73;;
6394;SDS011;3230;42.588;23.358;2023-05-07T13:15:47;9.03;;;5.93;;
6394;SDS011;3230;42.588;23.358;2023-05-07T13:18:12;6.80;;;5.23;;
6394;SDS011;3230;42.588;23.358;2023-05-07T13:20:38;5.27;;;4.77;;
6394;SDS011;3230;42.588;23.358;2023-05-07T13:23:04;5.57;;;4.80;;
6394;SDS011;3230;42.588;23.358;2023-05-07T13:25:29;5.80;;;4.70;;
6394;SDS011;3230;42.588;23.358;2023-05-07T13:27:59;7.50;;;5.23;;
6394;SDS011;3230;42.588;23.358;2023-05-07T13:30:24;9.20;;;5.33;;
6394;SDS011;3230;42.588;23.358;2023-05-07T13:32:50;16.47;;;5.43;;
6394;SDS011;3230;42.588;23.358;2023-05-07T13:35:17;7.07;;;5.30;;
6394;SDS011;3230;42.588;23.358;2023-05-07T13:37:42;6.40;;;4.97;;
6394;SDS011;3230;42.588;23.358;2023-05-07T13:40:08;5.30;;;4.80;;
6394;SDS011;3230;42.588;23.358;2023-05-07T13:42:34;6.07;;;4.90;;
6394;SDS011;3230;42.588;23.358;2023-05-07T13:44:59;7.13;;;5.00;;
6394;SDS011;3230;42.588;23.358;2023-05-07T13:47:25;8.03;;;4.77;;
6394;SDS011;3230;42.588;23.358;2023-05-07T13:49:51;11.03;;;5.40;;
6394;SDS011;3230;42.588;23.358;2023-05-07T13:52:16;6.30;;;4.50;;
6394;SDS011;3230;42.588;23.358;2023-05-07T13:54:42;7.60;;;4.87;;
6394;SDS011;3230;42.588;23.358;2023-05-07T13:57:08;5.10;;;4.50;;
6394;SDS011;3230;42.588;23.358;2023-05-07T13:59:33;7.87;;;5.00;;
6394;SDS011;3230;42.588;23.358;2023-05-07T14:01:59;5.50;;;4.80;;
6394;SDS011;3230;42.588;23.358;2023-05-07T14:04:24;6.70;;;4.77;;
6394;SDS011;3230;42.588;23.358;2023-05-07T14:06:50;6.77;;;5.17;;
6394;SDS011;3230;42.588;23.358;2023-05-07T14:09:16;9.53;;;5.00;;
6394;SDS011;3230;42.588;23.358;2023-05-07T14:11:41;6.63;;;4.63;;
6394;SDS011;3230;42.588;23.358;2023-05-07T14:14:07;6.67;;;5.03;;
6394;SDS011;3230;42.588;23.358;2023-05-07T14:16:32;10.87;;;4.57;;
6394;SDS011;3230;42.588;23.358;2023-05-07T14:18:58;11.53;;;5.30;;
6394;SDS011;3230;42.588;23.358;2023-05-07T14:21:23;5.50;;;4.63;;
6394;SDS011;3230;42.588;23.358;2023-05-07T14:23:49;12.60;;;5.03;;
6394;SDS011;3230;42.588;23.358;2023-05-07T14:26:14;10.33;;;4.63;;
6394;SDS011;3230;42.588;23.358;2023-05-07T14:28:40;5.80;;;4.80;;
6394;SDS011;3230;42.588;23.358;2023-05-07T14:31:11;7.30;;;4.37;;
6394;SDS011;3230;42.588;23.358;2023-05-07T14:33:36;6.13;;;4.27;;
6394;SDS011;3230;42.588;23.358;2023-05-07T14:36:01;6.80;;;5.07;;
6394;SDS011;3230;42.588;23.358;2023-05-07T14:38:28;14.63;;;5.80;;
6394;SDS011;3230;42.588;23.358;2023-05-07T14:40:54;4.73;;;4.23;;
6394;SDS011;3230;42.588;23.358;2023-05-07T14:43:21;8.07;;;5.13;;
6394;SDS011;3230;42.588;23.358;2023-05-07T14:45:46;5.90;;;4.57;;
6394;SDS011;3230;42.588;23.358;2023-05-07T14:48:12;9.80;;;5.17;;
6394;SDS011;3230;42.588;23.358;2023-05-07T14:50:40;11.37;;;4.93;;
6394;SDS011;3230;42.588;23.358;2023-05-07T14:53:06;12.30;;;4.50;;
6394;SDS011;3230;42.588;23.358;2023-05-07T14:55:31;6.77;;;4.80;;
6394;SDS011;3230;42.588;23.358;2023-05-07T14:57:57;6.13;;;5.10;;
6394;SDS011;3230;42.588;23.358;2023-05-07T15:00:22;5.20;;;4.40;;
6394;SDS011;3230;42.588;23.358;2023-05-07T15:02:48;5.50;;;4.70;;
6394;SDS011;3230;42.588;23.358;2023-05-07T15:05:13;4.07;;;3.67;;
6394;SDS011;3230;42.588;23.358;2023-05-07T15:07:39;6.00;;;4.30;;
6394;SDS011;3230;42.588;23.358;2023-05-07T15:10:05;5.07;;;4.00;;
6394;SDS011;3230;42.588;23.358;2023-05-07T15:12:31;4.73;;;3.63;;
6394;SDS011;3230;42.588;23.358;2023-05-07T15:14:57;4.50;;;3.60;;